createdAt,value
2023-01-10T00:00:35.475Z,97310.19
2023-01-10T00:03:04.357Z,97316.38
2023-01-10T00:05:32.961Z,97318.22
2023-01-10T00:08:03.730Z,97322.38
2023-01-10T00:10:32.485Z,97329.78
2023-01-10T00:13:18.920Z,97325.47
2023-01-10T00:15:47.697Z,97329.63
2023-01-10T00:18:16.510Z,97330.63
2023-01-10T00:20:45.890Z,97333.31
2023-01-10T00:23:16.238Z,97336.81
2023-01-10T00:25:44.983Z,97337.03
2023-01-10T00:28:20.369Z,97346.94
2023-01-10T00:30:55.004Z,97345.06
2023-01-10T00:33:23.893Z,97344.25
2023-01-10T00:35:52.623Z,97346.94
2023-01-10T00:38:22.724Z,97354.13
2023-01-10T00:40:51.340Z,97351.44
2023-01-10T00:43:37.331Z,97359.50
2023-01-10T00:46:06.314Z,97356.00
2023-01-10T00:48:35.233Z,97367.56
2023-01-10T00:51:03.875Z,97366.72
2023-01-10T00:53:33.949Z,97374.78
2023-01-10T00:56:02.658Z,97385.72
2023-01-10T00:58:31.243Z,97383.03
2023-01-10T01:00:59.962Z,97384.06
2023-01-10T01:03:28.659Z,97396.47
2023-01-10T01:05:57.194Z,97395.59
2023-01-10T01:08:25.848Z,97400.16
2023-01-10T01:10:55.798Z,97393.13
2023-01-10T01:13:24.488Z,97397.47
2023-01-10T01:15:53.035Z,97402.00
2023-01-10T01:18:22.603Z,97405.53
2023-01-10T01:20:54.304Z,97403.88
2023-01-10T01:23:23.178Z,97403.88
2023-01-10T01:25:52.481Z,97404.69
2023-01-10T01:28:23.186Z,97402.84
2023-01-10T01:30:52.049Z,97411.91
2023-01-10T01:33:21.029Z,97414.59
2023-01-10T01:35:50.267Z,97419.97
2023-01-10T01:38:19.391Z,97407.56
2023-01-10T01:40:47.967Z,97416.47
2023-01-10T01:43:26.932Z,97416.47
2023-01-10T01:45:56.059Z,97417.47
2023-01-10T01:48:32.426Z,97415.63
2023-01-10T01:51:07.922Z,97420.16
2023-01-10T01:53:41.099Z,97413.78
2023-01-10T01:56:13.645Z,97417.47
2023-01-10T01:58:48.929Z,97412.94
2023-01-10T02:01:18.257Z,97423.88
2023-01-10T02:03:49.531Z,97425.53
2023-01-10T02:06:18.247Z,97423.66
2023-01-10T02:08:51.923Z,97422.84
2023-01-10T02:11:20.683Z,97426.75
2023-01-10T02:13:50.708Z,97426.56
2023-01-10T02:16:19.361Z,97427.59
2023-01-10T02:18:47.974Z,97428.41
2023-01-10T02:22:01.126Z,97431.94
2023-01-10T02:25:11.696Z,97432.75
2023-01-10T02:27:49.282Z,97442.66
2023-01-10T02:30:46.555Z,97446.16
2023-01-10T02:33:20.575Z,97452.56
2023-01-10T02:36:26.817Z,97447.22
2023-01-10T02:38:59.873Z,97459.78
2023-01-10T02:41:32.309Z,97457.13
2023-01-10T02:44:04.643Z,97460.63
2023-01-10T02:46:33.436Z,97464.13
2023-01-10T02:49:03.570Z,97468.69
2023-01-10T02:51:33.583Z,97470.53
2023-01-10T02:54:04.809Z,97469.50
2023-01-10T02:57:12.848Z,97470.53
2023-01-10T03:00:19.129Z,97480.22
2023-01-10T03:02:58.624Z,97483.09
2023-01-10T03:05:49.818Z,97481.28
2023-01-10T03:08:26.652Z,97474.22
2023-01-10T03:10:59.202Z,97483.09
2023-01-10T03:13:30.355Z,97493.00
2023-01-10T03:15:59.076Z,97500.06
2023-01-10T03:18:33.053Z,97492.19
2023-01-10T03:21:03.798Z,97504.56
2023-01-10T03:23:33.059Z,97509.94
2023-01-10T03:26:01.684Z,97509.94
2023-01-10T03:28:32.850Z,97509.94
2023-01-10T03:31:03.620Z,97511.78
2023-01-10T03:33:34.027Z,97525.22
2023-01-10T03:36:16.748Z,97525.22
2023-01-10T03:38:48.202Z,97535.13
2023-01-10T03:41:18.329Z,97532.44
2023-01-10T03:44:21.438Z,97537.81
2023-01-10T03:46:53.724Z,97537.81
2023-01-10T03:49:23.417Z,97549.38
2023-01-10T03:51:53.694Z,97551.22
2023-01-10T03:54:22.318Z,97561.13
2023-01-10T03:56:52.079Z,97561.13
2023-01-10T03:59:23.384Z,97560.31
2023-01-10T04:01:52.573Z,97554.94
2023-01-10T04:04:21.370Z,97568.34
2023-01-10T04:06:50.094Z,97560.31
2023-01-10T04:09:20.189Z,97566.50
2023-01-10T04:11:48.763Z,97580.75
2023-01-10T04:14:17.357Z,97587.16
2023-01-10T04:16:46.533Z,97586.28
2023-01-10T04:19:15.130Z,97581.78
2023-01-10T04:21:43.660Z,97587.16
2023-01-10T04:24:12.684Z,97598.88
2023-01-10T04:26:42.563Z,97600.56
2023-01-10T04:29:11.197Z,97612.28
2023-01-10T04:31:41.052Z,97608.59
2023-01-10T04:34:09.920Z,97608.59
2023-01-10T04:36:38.760Z,97604.25
2023-01-10T04:39:08.272Z,97603.25
2023-01-10T04:41:36.933Z,97605.06
2023-01-10T04:44:07.378Z,97615.81
2023-01-10T04:46:36.297Z,97619.34
2023-01-10T04:49:05.183Z,97623.03
2023-01-10T04:51:33.875Z,97631.09
2023-01-10T04:54:02.576Z,97619.34
2023-01-10T04:56:31.205Z,97627.41
2023-01-10T04:58:59.726Z,97634.59
2023-01-10T05:01:29.897Z,97638.13
2023-01-10T05:03:58.545Z,97639.97
2023-01-10T05:06:27.602Z,97647.19
2023-01-10T05:08:56.333Z,97646.34
2023-01-10T05:11:25.105Z,97658.75
2023-01-10T05:13:53.703Z,97660.59
2023-01-10T05:16:22.488Z,97664.13
2023-01-10T05:18:52.393Z,97664.97
2023-01-10T05:21:21.146Z,97676.69
2023-01-10T05:23:49.791Z,97679.38
2023-01-10T05:26:20.047Z,97673.19
2023-01-10T05:28:48.615Z,97687.44
2023-01-10T05:31:18.637Z,97695.50
2023-01-10T05:33:47.782Z,97702.53
2023-01-10T05:36:17.915Z,97703.53
2023-01-10T05:38:46.952Z,97710.75
2023-01-10T05:41:15.512Z,97708.91
2023-01-10T05:43:44.353Z,97713.44
2023-01-10T05:46:13.223Z,97718.00
2023-01-10T05:48:41.790Z,97727.91
2023-01-10T05:51:10.329Z,97722.31
2023-01-10T05:53:40.424Z,97731.41
2023-01-10T05:56:10.586Z,97731.41
2023-01-10T05:58:39.386Z,97737.59
2023-01-10T06:01:08.383Z,97734.75
2023-01-10T06:03:37.248Z,97737.44
2023-01-10T06:06:06.555Z,97741.09
2023-01-10T06:08:37.211Z,97748.34
2023-01-10T06:11:07.419Z,97752.66
2023-01-10T06:13:36.174Z,97753.53
2023-01-10T06:16:05.368Z,97756.84
2023-01-10T06:18:34.893Z,97761.38
2023-01-10T06:21:03.490Z,97758.16
2023-01-10T06:23:32.566Z,97774.25
2023-01-10T06:26:01.322Z,97773.59
2023-01-10T06:28:31.412Z,97779.63
2023-01-10T06:31:00.045Z,97781.09
2023-01-10T06:33:28.908Z,97786.63
2023-01-10T06:35:57.531Z,97788.94
2023-01-10T06:38:26.271Z,97789.59
2023-01-10T06:40:55.162Z,97794.97
2023-01-10T06:43:25.840Z,97803.03
2023-01-10T06:45:55.958Z,97806.84
2023-01-10T06:48:24.747Z,97807.72
2023-01-10T06:50:53.251Z,97811.91
2023-01-10T06:53:22.170Z,97824.03
2023-01-10T06:55:50.699Z,97830.63
2023-01-10T06:58:19.496Z,97839.75
2023-01-10T07:00:48.083Z,97835.13
2023-01-10T07:03:18.169Z,97836.81
2023-01-10T07:05:46.808Z,97836.81
2023-01-10T07:08:15.447Z,97839.19
2023-01-10T07:10:44.165Z,97843.38
2023-01-10T07:13:12.884Z,97844.88
2023-01-10T07:15:41.525Z,97849.19
2023-01-10T07:18:12.661Z,97848.19
2023-01-10T07:20:42.768Z,97850.84
2023-01-10T07:23:11.576Z,97852.53
2023-01-10T07:25:40.189Z,97852.34
2023-01-10T07:28:08.854Z,97857.53
2023-01-10T07:30:37.737Z,97864.56
2023-01-10T07:33:06.449Z,97861.88
2023-01-10T07:35:35.187Z,97865.22
2023-01-10T07:38:05.304Z,97867.75
2023-01-10T07:40:33.811Z,97866.88
2023-01-10T07:43:02.938Z,97877.59
2023-01-10T07:45:32.053Z,97868.72
2023-01-10T07:48:01.022Z,97865.22
2023-01-10T07:50:31.674Z,97872.25
2023-01-10T07:53:00.952Z,97868.56
2023-01-10T07:55:31.292Z,97878.28
2023-01-10T07:57:59.977Z,97880.13
2023-01-10T08:00:28.856Z,97890.03
2023-01-10T08:02:57.735Z,97885.28
2023-01-10T08:05:27.386Z,97887.16
2023-01-10T08:08:00.018Z,97900.78
2023-01-10T08:10:30.281Z,97903.44
2023-01-10T08:13:03.875Z,97893.53
2023-01-10T08:15:38.708Z,97905.94
2023-01-10T08:18:07.589Z,97912.13
2023-01-10T08:20:36.200Z,97904.75
2023-01-10T08:23:04.975Z,97901.06
2023-01-10T08:25:35.012Z,97911.78
2023-01-10T08:28:03.664Z,97915.47
2023-01-10T08:30:32.383Z,97927.25
2023-01-10T08:33:02.955Z,97923.72
2023-01-10T08:35:31.894Z,97922.03
2023-01-10T08:38:00.995Z,97926.41
2023-01-10T08:40:29.567Z,97926.59
2023-01-10T08:43:01.163Z,97929.63
2023-01-10T08:45:29.927Z,97930.09
2023-01-10T08:47:58.570Z,97937.53
2023-01-10T08:50:27.411Z,97941.19
2023-01-10T08:52:56.128Z,97936.03
2023-01-10T08:55:24.849Z,97948.44
2023-01-10T08:57:53.634Z,97962.00
2023-01-10T09:00:24.892Z,97971.91
2023-01-10T09:02:53.684Z,97970.91
2023-01-10T09:05:27.451Z,97980.47
2023-01-10T09:07:59.931Z,97976.56
2023-01-10T09:10:28.642Z,97977.22
2023-01-10T09:13:00.105Z,97988.16
2023-01-10T09:15:32.518Z,97997.75
2023-01-10T09:18:02.378Z,98006.63
2023-01-10T09:20:31.307Z,98003.13
2023-01-10T09:23:00.981Z,97994.06
2023-01-10T09:25:29.814Z,98003.59
2023-01-10T09:27:59.442Z,98008.75
2023-01-10T09:30:29.985Z,98015.34
2023-01-10T09:32:59.040Z,98015.00
2023-01-10T09:35:28.203Z,98030.25
2023-01-10T09:37:57.162Z,98025.72
2023-01-10T09:40:34.999Z,98023.88
2023-01-10T09:43:11.748Z,98032.91
2023-01-10T09:45:48.902Z,98037.28
2023-01-10T09:48:22.039Z,98031.94
2023-01-10T09:51:01.820Z,98028.22
2023-01-10T09:53:32.223Z,98043.66
2023-01-10T09:56:01.136Z,98036.25
2023-01-10T09:58:31.654Z,98039.63
2023-01-10T10:01:02.915Z,98051.84
2023-01-10T10:03:36.023Z,98044.81
2023-01-10T10:06:12.077Z,98058.03
2023-01-10T10:08:41.314Z,98054.69
2023-01-10T10:11:47.512Z,98050.66
2023-01-10T10:14:27.393Z,98054.81
2023-01-10T10:17:27.792Z,98048.06
2023-01-10T10:20:07.628Z,98052.81
2023-01-10T10:22:43.581Z,98054.63
2023-01-10T10:25:24.076Z,98061.19
2023-01-10T10:28:05.671Z,98061.84
2023-01-10T10:30:44.230Z,98074.44
2023-01-10T10:33:27.267Z,98072.78
2023-01-10T10:36:00.114Z,98078.16
2023-01-10T10:38:31.078Z,98076.31
2023-01-10T10:41:00.604Z,98075.09
2023-01-10T10:43:33.459Z,98079.16
2023-01-10T10:46:04.716Z,98075.28
2023-01-10T10:48:35.874Z,98076.78
2023-01-10T10:51:08.781Z,98077.31
2023-01-10T10:53:37.415Z,98086.75
2023-01-10T10:56:07.973Z,98078.44
2023-01-10T10:58:36.671Z,98092.53
2023-01-10T11:01:05.522Z,98086.91
2023-01-10T11:03:41.350Z,98097.13
2023-01-10T11:06:10.190Z,98101.97
2023-01-10T11:08:42.446Z,98099.81
2023-01-10T11:11:18.845Z,98103.50
2023-01-10T11:13:50.657Z,98107.84
2023-01-10T11:16:31.239Z,98112.69
2023-01-10T11:19:21.568Z,98114.34
2023-01-10T11:21:53.874Z,98109.66
2023-01-10T11:24:28.845Z,98115.03
2023-01-10T11:26:58.041Z,98116.03
2023-01-10T11:29:28.741Z,98128.09
2023-01-10T11:31:58.079Z,98130.47
2023-01-10T11:34:30.873Z,98135.16
2023-01-10T11:37:01.353Z,98131.50
2023-01-10T11:39:30.941Z,98128.97
2023-01-10T11:42:00.418Z,98133.69
2023-01-10T11:44:30.021Z,98133.69
2023-01-10T11:47:02.771Z,98141.22
2023-01-10T11:49:35.857Z,98146.94
2023-01-10T11:52:06.532Z,98152.78
2023-01-10T11:54:35.208Z,98150.84
2023-01-10T11:57:05.219Z,98161.28
2023-01-10T11:59:34.119Z,98169.34
2023-01-10T12:02:05.143Z,98170.72
2023-01-10T12:04:36.168Z,98170.47
2023-01-10T12:07:09.013Z,98171.19
2023-01-10T12:09:42.370Z,98174.41
2023-01-10T12:12:20.584Z,98180.13
2023-01-10T12:14:49.487Z,98176.78
2023-01-10T12:17:27.259Z,98176.31
2023-01-10T12:20:01.960Z,98180.81
2023-01-10T12:22:33.574Z,98185.56
2023-01-10T12:25:03.070Z,98178.50
2023-01-10T12:27:31.650Z,98182.88
2023-01-10T12:30:05.798Z,98187.38
2023-01-10T12:32:41.139Z,98202.66
2023-01-10T12:35:16.445Z,98193.97
2023-01-10T12:37:49.721Z,98205.34
2023-01-10T12:40:22.794Z,98205.53
2023-01-10T12:43:13.164Z,98204.69
2023-01-10T12:45:45.206Z,98210.06
2023-01-10T12:48:23.923Z,98210.91
2023-01-10T12:50:58.812Z,98225.31
2023-01-10T12:53:33.080Z,98230.03
2023-01-10T12:56:05.144Z,98233.22
2023-01-10T12:58:43.153Z,98229.69
2023-01-10T13:01:14.411Z,98235.22
2023-01-10T13:03:43.284Z,98233.56
2023-01-10T13:06:16.874Z,98237.91
2023-01-10T13:08:45.763Z,98235.41
2023-01-10T13:11:14.842Z,98233.56
2023-01-10T13:13:45.375Z,98237.25
2023-01-10T13:16:29.342Z,98234.56
2023-01-10T13:19:04.661Z,98242.59
2023-01-10T13:21:35.174Z,98239.09
2023-01-10T13:24:05.002Z,98242.59
2023-01-10T13:26:53.250Z,98243.63
2023-01-10T13:29:23.674Z,98247.97
2023-01-10T13:31:57.694Z,98251.69
2023-01-10T13:34:28.734Z,98252.50
2023-01-10T13:37:00.455Z,98265.94
2023-01-10T13:39:32.630Z,98266.97
2023-01-10T13:42:50.107Z,98276.00
2023-01-10T13:45:21.577Z,98277.69
2023-01-10T13:48:28.077Z,98283.06
2023-01-10T13:51:15.453Z,98280.53
2023-01-10T13:54:01.353Z,98284.91
2023-01-10T13:56:40.797Z,98288.44
2023-01-10T13:59:32.657Z,98292.13
2023-01-10T14:02:19.894Z,98293.13
2023-01-10T14:04:51.428Z,98298.50
2023-01-10T14:07:25.614Z,98293.13
2023-01-10T14:10:02.570Z,98301.19
2023-01-10T14:12:36.087Z,98309.41
2023-01-10T14:15:22.075Z,98306.72
2023-01-10T14:17:58.160Z,98309.41
2023-01-10T14:20:27.057Z,98313.94
2023-01-10T14:23:05.451Z,98312.09
2023-01-10T14:25:37.189Z,98320.50
2023-01-10T14:28:06.160Z,98317.66
2023-01-10T14:30:36.495Z,98328.19
2023-01-10T14:33:08.655Z,98321.16
2023-01-10T14:35:40.369Z,98315.31
2023-01-10T14:38:09.707Z,98316.97
2023-01-10T14:40:43.290Z,98326.38
2023-01-10T14:43:16.912Z,98327.03
2023-01-10T14:45:50.934Z,98336.59
2023-01-10T14:48:30.390Z,98336.25
2023-01-10T14:51:18.187Z,98344.50
2023-01-10T14:53:46.755Z,98351.72
2023-01-10T14:56:22.136Z,98353.72
2023-01-10T14:58:50.715Z,98363.28
2023-01-10T15:01:24.574Z,98373.81
2023-01-10T15:03:53.674Z,98369.31
2023-01-10T15:06:23.592Z,98360.25
2023-01-10T15:09:03.344Z,98361.91
2023-01-10T15:11:34.324Z,98364.78
2023-01-10T15:14:07.829Z,98371.81
2023-01-10T15:16:38.968Z,98374.50
2023-01-10T15:19:07.651Z,98382.56
2023-01-10T15:21:36.410Z,98386.25
2023-01-10T15:24:12.507Z,98386.94
2023-01-10T15:26:42.688Z,98394.63
2023-01-10T15:29:14.285Z,98402.03
2023-01-10T15:31:43.013Z,98392.94
2023-01-10T15:34:15.754Z,98386.75
2023-01-10T15:36:46.441Z,98380.91
2023-01-10T15:39:21.688Z,98379.19
2023-01-10T15:41:51.675Z,98385.78
2023-01-10T15:44:25.245Z,98387.59
2023-01-10T15:46:57.030Z,98386.75
2023-01-10T15:49:26.316Z,98395.66
2023-01-10T15:51:54.948Z,98400.03
2023-01-10T15:54:33.380Z,98402.19
2023-01-10T15:57:07.892Z,98409.94
2023-01-10T15:59:39.422Z,98413.44
2023-01-10T16:02:22.759Z,98417.78
2023-01-10T16:04:52.259Z,98419.47
2023-01-10T16:07:25.616Z,98414.78
2023-01-10T16:09:57.779Z,98422.66
2023-01-10T16:12:51.944Z,98418.47
2023-01-10T16:15:22.826Z,98422.16
2023-01-10T16:17:51.960Z,98428.03
2023-01-10T16:20:22.251Z,98437.75
2023-01-10T16:22:50.847Z,98429.88
2023-01-10T16:25:21.668Z,98434.25
2023-01-10T16:27:51.589Z,98435.06
2023-01-10T16:30:24.694Z,98428.03
2023-01-10T16:32:53.606Z,98439.94
2023-01-10T16:35:22.311Z,98439.75
2023-01-10T16:37:51.052Z,98444.50
2023-01-10T16:40:22.517Z,98446.00
2023-01-10T16:43:10.194Z,98450.34
2023-01-10T16:45:38.749Z,98469.97
2023-01-10T16:48:07.910Z,98463.91
2023-01-10T16:50:36.526Z,98465.78
2023-01-10T16:53:06.385Z,98473.69
2023-01-10T16:55:41.055Z,98476.34
2023-01-10T16:58:11.475Z,98491.63
2023-01-10T17:00:40.711Z,98481.72
2023-01-10T17:03:12.295Z,98486.25
2023-01-10T17:05:40.898Z,98502.69
2023-01-10T17:08:12.447Z,98506.88
2023-01-10T17:10:41.056Z,98506.88
2023-01-10T17:13:11.244Z,98513.94
2023-01-10T17:15:39.855Z,98520.97
2023-01-10T17:18:08.820Z,98530.06
2023-01-10T17:20:37.490Z,98532.56
2023-01-10T17:23:06.253Z,98535.22
2023-01-10T17:25:35.092Z,98544.81
2023-01-10T17:28:03.838Z,98548.31
2023-01-10T17:30:33.828Z,98550.03
2023-01-10T17:33:02.540Z,98551.69
2023-01-10T17:35:32.553Z,98550.50
2023-01-10T17:38:01.436Z,98555.06
2023-01-10T17:40:30.054Z,98550.69
2023-01-10T17:42:58.785Z,98552.53
2023-01-10T17:45:27.435Z,98553.38
2023-01-10T17:47:58.336Z,98567.47
2023-01-10T17:50:26.996Z,98553.03
2023-01-10T17:52:56.307Z,98553.03
2023-01-10T17:55:25.090Z,98561.09
2023-01-10T17:57:53.685Z,98553.88
2023-01-10T18:00:22.813Z,98554.72
2023-01-10T18:02:51.623Z,98560.06
2023-01-10T18:05:21.684Z,98568.13
2023-01-10T18:07:50.544Z,98565.78
2023-01-10T18:10:19.359Z,98574.88
2023-01-10T18:12:47.993Z,98573.50
2023-01-10T18:15:16.911Z,98572.66
2023-01-10T18:17:45.811Z,98574.34
2023-01-10T18:20:14.444Z,98570.81
2023-01-10T18:23:04.686Z,98561.94
2023-01-10T18:25:33.598Z,98575.50
2023-01-10T18:28:02.372Z,98579.72
2023-01-10T18:30:31.169Z,98583.56
2023-01-10T18:32:59.984Z,98578.88
2023-01-10T18:35:30.297Z,98580.56
2023-01-10T18:38:00.553Z,98584.09
2023-01-10T18:40:29.294Z,98578.03
2023-01-10T18:42:58.698Z,98586.25
2023-01-10T18:45:29.953Z,98588.78
2023-01-10T18:47:59.342Z,98586.94
2023-01-10T18:50:28.075Z,98586.09
2023-01-10T18:52:57.668Z,98584.91
2023-01-10T18:55:27.759Z,98587.13
2023-01-10T18:57:56.332Z,98587.94
2023-01-10T19:00:25.690Z,98589.63
2023-01-10T19:02:57.798Z,98589.78
2023-01-10T19:05:27.417Z,98593.31
2023-01-10T19:07:56.114Z,98592.47
2023-01-10T19:10:24.691Z,98595.81
2023-01-10T19:12:54.708Z,98587.94
2023-01-10T19:15:23.899Z,98588.63
2023-01-10T19:17:52.570Z,98593.31
2023-01-10T19:20:21.691Z,98594.97
2023-01-10T19:22:50.298Z,98587.94
2023-01-10T19:25:19.069Z,98586.25
2023-01-10T19:27:47.730Z,98604.06
2023-01-10T19:30:18.736Z,98602.34
2023-01-10T19:32:47.445Z,98615.63
2023-01-10T19:35:16.217Z,98617.28
2023-01-10T19:37:44.803Z,98617.97
2023-01-10T19:40:14.598Z,98619.16
2023-01-10T19:42:43.327Z,98610.25
2023-01-10T19:45:12.195Z,98615.63
2023-01-10T19:47:42.264Z,98611.44
2023-01-10T19:50:12.799Z,98615.78
2023-01-10T19:52:41.553Z,98616.47
2023-01-10T19:55:10.921Z,98610.25
2023-01-10T19:57:39.763Z,98612.25
2023-01-10T20:00:09.962Z,98609.56
2023-01-10T20:02:38.710Z,98615.78
2023-01-10T20:05:10.253Z,98622.50
2023-01-10T20:07:38.960Z,98625.00
2023-01-10T20:10:08.490Z,98624.16
2023-01-10T20:12:37.090Z,98631.25
2023-01-10T20:15:06.783Z,98618.66
2023-01-10T20:17:35.605Z,98631.25
2023-01-10T20:20:04.388Z,98627.88
2023-01-10T20:22:34.334Z,98637.59
2023-01-10T20:25:03.015Z,98635.94
2023-01-10T20:27:31.797Z,98631.53
2023-01-10T20:30:00.383Z,98627.03
2023-01-10T20:32:29.096Z,98626.19
2023-01-10T20:34:57.929Z,98623.50
2023-01-10T20:37:26.617Z,98626.34
2023-01-10T20:39:57.186Z,98625.53
2023-01-10T20:42:25.831Z,98630.56
2023-01-10T20:44:54.425Z,98635.94
2023-01-10T20:47:23.477Z,98639.44
2023-01-10T20:49:52.045Z,98639.44
2023-01-10T20:52:20.580Z,98643.97
2023-01-10T20:54:49.322Z,98643.16
2023-01-10T20:57:19.288Z,98642.28
2023-01-10T20:59:47.895Z,98651.34
2023-01-10T21:02:16.631Z,98648.66
2023-01-10T21:04:45.262Z,98649.50
2023-01-10T21:07:13.924Z,98651.19
2023-01-10T21:09:42.779Z,98650.34
2023-01-10T21:12:22.976Z,98658.56
2023-01-10T21:14:53.884Z,98654.03
2023-01-10T21:17:23.116Z,98653.03
2023-01-10T21:19:51.680Z,98649.69
2023-01-10T21:22:20.487Z,98656.72
2023-01-10T21:24:49.980Z,98661.25
2023-01-10T21:27:18.683Z,98664.09
2023-01-10T21:29:47.314Z,98670.97
2023-01-10T21:32:17.377Z,98670.81
2023-01-10T21:34:46.060Z,98669.31
2023-01-10T21:37:14.635Z,98676.69
2023-01-10T21:39:43.752Z,98678.53
2023-01-10T21:42:30.384Z,98673.31
2023-01-10T21:44:59.188Z,98676.00
2023-01-10T21:47:29.431Z,98685.91
2023-01-10T21:49:58.011Z,98685.91
2023-01-10T21:52:26.885Z,98691.28
2023-01-10T21:54:55.916Z,98685.91
2023-01-10T21:57:24.544Z,98685.91
2023-01-10T21:59:53.406Z,98683.22
2023-01-10T22:02:22.598Z,98690.44
2023-01-10T22:04:54.949Z,98679.69
2023-01-10T22:07:24.168Z,98687.59
2023-01-10T22:09:52.684Z,98681.53
2023-01-10T22:12:23.435Z,98675.16
2023-01-10T22:14:52.185Z,98676.19
2023-01-10T22:17:20.753Z,98678.03
2023-01-10T22:19:49.407Z,98679.69
2023-01-10T22:22:19.668Z,98675.34
2023-01-10T22:24:48.367Z,98679.69
2023-01-10T22:27:17.033Z,98673.50
2023-01-10T22:29:45.972Z,98674.31
2023-01-10T22:32:14.629Z,98680.88
2023-01-10T22:34:46.255Z,98677.16
2023-01-10T22:37:14.883Z,98676.34
2023-01-10T22:39:47.016Z,98684.22
2023-01-10T22:42:17.163Z,98681.69
2023-01-10T22:44:45.815Z,98682.53
2023-01-10T22:47:14.388Z,98679.00
2023-01-10T22:49:43.115Z,98672.81
2023-01-10T22:52:11.765Z,98664.75
2023-01-10T22:54:40.360Z,98671.78
2023-01-10T22:57:10.454Z,98677.50
2023-01-10T22:59:44.118Z,98673.66
2023-01-10T23:02:14.217Z,98680.88
2023-01-10T23:04:42.879Z,98680.88
2023-01-10T23:07:13.131Z,98679.00
2023-01-10T23:09:41.816Z,98686.22
2023-01-10T23:12:11.804Z,98687.06
2023-01-10T23:14:40.396Z,98684.38
2023-01-10T23:17:09.035Z,98687.91
2023-01-10T23:19:37.721Z,98677.50
2023-01-10T23:22:06.274Z,98681.88
2023-01-10T23:24:34.957Z,98679.00
2023-01-10T23:27:03.524Z,98672.81
2023-01-10T23:29:33.567Z,98671.97
2023-01-10T23:32:02.270Z,98674.66
2023-01-10T23:34:30.938Z,98667.59
2023-01-10T23:36:59.483Z,98674.66
2023-01-10T23:39:29.511Z,98682.72
2023-01-10T23:41:58.093Z,98673.81
2023-01-10T23:44:29.100Z,98684.56
2023-01-10T23:46:59.104Z,98682.72
2023-01-10T23:49:27.837Z,98675.50
2023-01-10T23:51:56.408Z,98678.34
2023-01-10T23:54:25.143Z,98685.41
2023-01-10T23:56:53.709Z,98683.69
2023-01-10T23:59:22.589Z,98684.56
